sensor_id;sensor_type;location;lat;lon;timestamp;P1;durP1;ratioP1;P2;durP2;ratioP2
21239;SDS011;10778;48.962;9.018;2023-09-19T00:01:33;2.28;;;0.98;;
21239;SDS011;10778;48.962;9.018;2023-09-19T00:04:01;2.92;;;1.20;;
21239;SDS011;10778;48.962;9.018;2023-09-19T00:06:29;1.67;;;0.90;;
21239;SDS011;10778;48.962;9.018;2023-09-19T00:08:57;4.90;;;1.15;;
21239;SDS011;10778;48.962;9.018;2023-09-19T00:11:26;1.67;;;1.05;;
21239;SDS011;10778;48.962;9.018;2023-09-19T00:13:53;4.30;;;1.20;;
21239;SDS011;10778;48.962;9.018;2023-09-19T00:16:19;2.47;;;1.35;;
21239;SDS011;10778;48.962;9.018;2023-09-19T00:18:45;2.50;;;1.00;;
21239;SDS011;10778;48.962;9.018;2023-09-19T00:21:12;4.35;;;1.20;;
21239;SDS011;10778;48.962;9.018;2023-09-19T00:23:38;3.63;;;1.15;;
21239;SDS011;10778;48.962;9.018;2023-09-19T00:26:06;3.22;;;1.30;;
21239;SDS011;10778;48.962;9.018;2023-09-19T00:28:32;2.28;;;1.20;;
21239;SDS011;10778;48.962;9.018;2023-09-19T00:30:58;3.33;;;1.10;;
21239;SDS011;10778;48.962;9.018;2023-09-19T00:33:27;3.58;;;1.38;;
21239;SDS011;10778;48.962;9.018;2023-09-19T00:35:56;3.40;;;1.30;;
21239;SDS011;10778;48.962;9.018;2023-09-19T00:38:27;4.10;;;0.98;;
21239;SDS011;10778;48.962;9.018;2023-09-19T00:40:54;2.33;;;1.20;;
21239;SDS011;10778;48.962;9.018;2023-09-19T00:43:20;2.95;;;1.50;;
21239;SDS011;10778;48.962;9.018;2023-09-19T00:45:49;2.03;;;1.05;;
21239;SDS011;10778;48.962;9.018;2023-09-19T00:48:17;1.80;;;1.20;;
21239;SDS011;10778;48.962;9.018;2023-09-19T00:50:45;2.97;;;1.02;;
21239;SDS011;10778;48.962;9.018;2023-09-19T00:53:18;2.20;;;0.98;;
21239;SDS011;10778;48.962;9.018;2023-09-19T00:55:46;2.90;;;1.08;;
21239;SDS011;10778;48.962;9.018;2023-09-19T00:58:12;2.55;;;1.00;;
21239;SDS011;10778;48.962;9.018;2023-09-19T01:00:40;2.38;;;1.10;;
21239;SDS011;10778;48.962;9.018;2023-09-19T01:03:06;2.58;;;1.20;;
21239;SDS011;10778;48.962;9.018;2023-09-19T01:05:33;3.20;;;1.30;;
21239;SDS011;10778;48.962;9.018;2023-09-19T01:07:59;4.28;;;1.30;;
21239;SDS011;10778;48.962;9.018;2023-09-19T01:10:25;3.55;;;1.38;;
21239;SDS011;10778;48.962;9.018;2023-09-19T01:15:51;3.13;;;1.38;;
21239;SDS011;10778;48.962;9.018;2023-09-19T01:18:43;2.28;;;1.35;;
21239;SDS011;10778;48.962;9.018;2023-09-19T01:21:22;1.80;;;1.13;;
21239;SDS011;10778;48.962;9.018;2023-09-19T01:29:23;2.75;;;1.27;;
21239;SDS011;10778;48.962;9.018;2023-09-19T01:32:05;1.90;;;1.20;;
21239;SDS011;10778;48.962;9.018;2023-09-19T01:34:48;1.95;;;1.15;;
21239;SDS011;10778;48.962;9.018;2023-09-19T01:37:18;2.55;;;1.13;;
21239;SDS011;10778;48.962;9.018;2023-09-19T01:39:51;1.85;;;1.10;;
21239;SDS011;10778;48.962;9.018;2023-09-19T01:42:44;2.47;;;1.30;;
21239;SDS011;10778;48.962;9.018;2023-09-19T01:48:16;3.53;;;1.23;;
21239;SDS011;10778;48.962;9.018;2023-09-19T01:51:00;3.22;;;1.30;;
21239;SDS011;10778;48.962;9.018;2023-09-19T01:56:21;4.43;;;1.40;;
21239;SDS011;10778;48.962;9.018;2023-09-19T01:58:51;2.78;;;1.33;;
21239;SDS011;10778;48.962;9.018;2023-09-19T02:01:22;3.20;;;1.35;;
21239;SDS011;10778;48.962;9.018;2023-09-19T02:03:49;2.80;;;1.30;;
21239;SDS011;10778;48.962;9.018;2023-09-19T02:06:16;3.40;;;1.23;;
21239;SDS011;10778;48.962;9.018;2023-09-19T02:08:44;4.15;;;1.30;;
21239;SDS011;10778;48.962;9.018;2023-09-19T02:11:13;1.83;;;1.13;;
21239;SDS011;10778;48.962;9.018;2023-09-19T02:13:39;1.98;;;1.13;;
21239;SDS011;10778;48.962;9.018;2023-09-19T02:16:06;3.28;;;1.27;;
21239;SDS011;10778;48.962;9.018;2023-09-19T02:18:35;3.47;;;1.35;;
21239;SDS011;10778;48.962;9.018;2023-09-19T02:21:01;2.13;;;1.20;;
21239;SDS011;10778;48.962;9.018;2023-09-19T02:23:28;2.70;;;1.23;;
21239;SDS011;10778;48.962;9.018;2023-09-19T02:25:56;3.45;;;1.27;;
21239;SDS011;10778;48.962;9.018;2023-09-19T02:28:31;3.08;;;1.23;;
21239;SDS011;10778;48.962;9.018;2023-09-19T02:30:58;2.60;;;1.30;;
21239;SDS011;10778;48.962;9.018;2023-09-19T02:33:24;3.80;;;1.15;;
21239;SDS011;10778;48.962;9.018;2023-09-19T02:35:56;2.92;;;1.10;;
21239;SDS011;10778;48.962;9.018;2023-09-19T02:38:25;3.13;;;1.20;;
21239;SDS011;10778;48.962;9.018;2023-09-19T02:40:52;2.30;;;1.00;;
21239;SDS011;10778;48.962;9.018;2023-09-19T02:43:18;1.55;;;1.10;;
21239;SDS011;10778;48.962;9.018;2023-09-19T02:45:48;4.97;;;1.30;;
21239;SDS011;10778;48.962;9.018;2023-09-19T02:48:19;2.50;;;1.20;;
21239;SDS011;10778;48.962;9.018;2023-09-19T02:50:49;1.75;;;1.10;;
21239;SDS011;10778;48.962;9.018;2023-09-19T02:53:15;1.35;;;0.98;;
21239;SDS011;10778;48.962;9.018;2023-09-19T02:55:41;5.50;;;1.50;;
21239;SDS011;10778;48.962;9.018;2023-09-19T02:58:08;3.65;;;1.40;;
21239;SDS011;10778;48.962;9.018;2023-09-19T03:00:37;1.70;;;1.15;;
21239;SDS011;10778;48.962;9.018;2023-09-19T03:03:03;3.58;;;1.10;;
21239;SDS011;10778;48.962;9.018;2023-09-19T03:05:30;3.38;;;1.30;;
21239;SDS011;10778;48.962;9.018;2023-09-19T03:07:57;1.75;;;1.30;;
21239;SDS011;10778;48.962;9.018;2023-09-19T03:10:26;3.00;;;1.23;;
21239;SDS011;10778;48.962;9.018;2023-09-19T03:12:53;2.28;;;1.20;;
21239;SDS011;10778;48.962;9.018;2023-09-19T03:15:20;2.00;;;1.20;;
21239;SDS011;10778;48.962;9.018;2023-09-19T03:17:48;2.72;;;1.20;;
21239;SDS011;10778;48.962;9.018;2023-09-19T03:20:19;2.78;;;1.10;;
21239;SDS011;10778;48.962;9.018;2023-09-19T03:22:47;3.33;;;1.20;;
21239;SDS011;10778;48.962;9.018;2023-09-19T03:25:14;3.55;;;1.27;;
21239;SDS011;10778;48.962;9.018;2023-09-19T03:27:45;2.60;;;1.38;;
21239;SDS011;10778;48.962;9.018;2023-09-19T03:30:12;1.98;;;1.52;;
21239;SDS011;10778;48.962;9.018;2023-09-19T03:32:46;3.30;;;1.52;;
21239;SDS011;10778;48.962;9.018;2023-09-19T03:35:16;4.05;;;1.42;;
21239;SDS011;10778;48.962;9.018;2023-09-19T03:37:42;2.55;;;1.30;;
21239;SDS011;10778;48.962;9.018;2023-09-19T03:40:09;2.65;;;1.50;;
21239;SDS011;10778;48.962;9.018;2023-09-19T03:42:40;2.60;;;1.15;;
21239;SDS011;10778;48.962;9.018;2023-09-19T03:45:08;2.38;;;1.40;;
21239;SDS011;10778;48.962;9.018;2023-09-19T03:47:40;2.97;;;1.30;;
21239;SDS011;10778;48.962;9.018;2023-09-19T03:50:08;4.00;;;1.30;;
21239;SDS011;10778;48.962;9.018;2023-09-19T03:52:36;2.60;;;1.60;;
21239;SDS011;10778;48.962;9.018;2023-09-19T03:55:03;3.28;;;1.40;;
21239;SDS011;10778;48.962;9.018;2023-09-19T03:57:30;5.20;;;1.75;;
21239;SDS011;10778;48.962;9.018;2023-09-19T03:59:56;3.40;;;1.48;;
21239;SDS011;10778;48.962;9.018;2023-09-19T04:02:22;2.30;;;1.50;;
21239;SDS011;10778;48.962;9.018;2023-09-19T04:04:53;2.15;;;1.30;;
21239;SDS011;10778;48.962;9.018;2023-09-19T04:07:19;3.65;;;1.70;;
21239;SDS011;10778;48.962;9.018;2023-09-19T04:09:48;3.63;;;1.60;;
21239;SDS011;10778;48.962;9.018;2023-09-19T04:12:14;1.83;;;1.40;;
21239;SDS011;10778;48.962;9.018;2023-09-19T04:14:42;2.78;;;1.40;;
21239;SDS011;10778;48.962;9.018;2023-09-19T04:17:08;2.80;;;1.55;;
21239;SDS011;10778;48.962;9.018;2023-09-19T04:19:36;2.58;;;1.38;;
21239;SDS011;10778;48.962;9.018;2023-09-19T04:22:02;3.83;;;1.58;;
21239;SDS011;10778;48.962;9.018;2023-09-19T04:24:29;4.70;;;1.70;;
21239;SDS011;10778;48.962;9.018;2023-09-19T04:26:56;4.10;;;1.83;;
21239;SDS011;10778;48.962;9.018;2023-09-19T04:29:22;2.40;;;1.40;;
21239;SDS011;10778;48.962;9.018;2023-09-19T04:31:48;3.60;;;1.65;;
21239;SDS011;10778;48.962;9.018;2023-09-19T04:34:14;4.30;;;1.92;;
21239;SDS011;10778;48.962;9.018;2023-09-19T04:36:41;2.60;;;1.80;;
21239;SDS011;10778;48.962;9.018;2023-09-19T04:39:07;3.20;;;1.65;;
21239;SDS011;10778;48.962;9.018;2023-09-19T04:41:34;2.47;;;1.77;;
21239;SDS011;10778;48.962;9.018;2023-09-19T04:44:00;4.80;;;1.90;;
21239;SDS011;10778;48.962;9.018;2023-09-19T04:46:26;3.80;;;1.73;;
21239;SDS011;10778;48.962;9.018;2023-09-19T04:48:52;3.17;;;2.00;;
21239;SDS011;10778;48.962;9.018;2023-09-19T04:51:18;2.88;;;1.70;;
21239;SDS011;10778;48.962;9.018;2023-09-19T04:53:46;3.35;;;1.80;;
21239;SDS011;10778;48.962;9.018;2023-09-19T04:56:12;3.80;;;1.70;;
21239;SDS011;10778;48.962;9.018;2023-09-19T04:58:39;3.13;;;1.83;;
21239;SDS011;10778;48.962;9.018;2023-09-19T05:01:05;2.72;;;1.63;;
21239;SDS011;10778;48.962;9.018;2023-09-19T05:03:31;2.92;;;1.80;;
21239;SDS011;10778;48.962;9.018;2023-09-19T05:05:57;3.20;;;1.73;;
21239;SDS011;10778;48.962;9.018;2023-09-19T05:08:23;4.15;;;1.80;;
21239;SDS011;10778;48.962;9.018;2023-09-19T05:10:49;3.33;;;1.73;;
21239;SDS011;10778;48.962;9.018;2023-09-19T05:13:15;4.30;;;2.10;;
21239;SDS011;10778;48.962;9.018;2023-09-19T05:15:41;4.60;;;1.80;;
21239;SDS011;10778;48.962;9.018;2023-09-19T05:18:07;4.15;;;2.10;;
21239;SDS011;10778;48.962;9.018;2023-09-19T05:20:34;2.55;;;1.65;;
21239;SDS011;10778;48.962;9.018;2023-09-19T05:23:02;4.07;;;2.10;;
21239;SDS011;10778;48.962;9.018;2023-09-19T05:25:31;3.42;;;2.00;;
21239;SDS011;10778;48.962;9.018;2023-09-19T05:27:58;3.60;;;2.10;;
21239;SDS011;10778;48.962;9.018;2023-09-19T05:30:25;4.25;;;2.10;;
21239;SDS011;10778;48.962;9.018;2023-09-19T05:32:53;5.63;;;2.33;;
21239;SDS011;10778;48.962;9.018;2023-09-19T05:35:20;3.05;;;2.10;;
21239;SDS011;10778;48.962;9.018;2023-09-19T05:37:47;4.93;;;2.13;;
21239;SDS011;10778;48.962;9.018;2023-09-19T05:40:17;3.22;;;1.77;;
21239;SDS011;10778;48.962;9.018;2023-09-19T05:42:43;5.22;;;1.70;;
21239;SDS011;10778;48.962;9.018;2023-09-19T05:45:10;4.00;;;1.75;;
21239;SDS011;10778;48.962;9.018;2023-09-19T05:47:39;3.28;;;1.77;;
21239;SDS011;10778;48.962;9.018;2023-09-19T05:50:09;4.82;;;2.00;;
21239;SDS011;10778;48.962;9.018;2023-09-19T05:52:35;3.53;;;1.67;;
21239;SDS011;10778;48.962;9.018;2023-09-19T05:55:06;4.15;;;1.77;;
21239;SDS011;10778;48.962;9.018;2023-09-19T05:57:36;6.18;;;2.28;;
21239;SDS011;10778;48.962;9.018;2023-09-19T06:00:08;9.63;;;2.30;;
21239;SDS011;10778;48.962;9.018;2023-09-19T06:02:37;9.20;;;2.30;;
21239;SDS011;10778;48.962;9.018;2023-09-19T06:05:04;3.50;;;1.70;;
21239;SDS011;10778;48.962;9.018;2023-09-19T06:07:32;3.35;;;1.77;;
21239;SDS011;10778;48.962;9.018;2023-09-19T06:10:05;8.43;;;2.20;;
21239;SDS011;10778;48.962;9.018;2023-09-19T06:12:33;5.03;;;1.90;;
21239;SDS011;10778;48.962;9.018;2023-09-19T06:15:00;8.65;;;2.10;;
21239;SDS011;10778;48.962;9.018;2023-09-19T06:17:26;13.38;;;2.65;;
21239;SDS011;10778;48.962;9.018;2023-09-19T06:19:53;5.90;;;2.17;;
21239;SDS011;10778;48.962;9.018;2023-09-19T06:22:19;5.72;;;1.98;;
21239;SDS011;10778;48.962;9.018;2023-09-19T06:24:45;6.22;;;2.20;;
21239;SDS011;10778;48.962;9.018;2023-09-19T06:27:12;5.97;;;1.88;;
21239;SDS011;10778;48.962;9.018;2023-09-19T06:29:39;3.92;;;1.65;;
21239;SDS011;10778;48.962;9.018;2023-09-19T06:32:08;5.15;;;2.00;;
21239;SDS011;10778;48.962;9.018;2023-09-19T06:34:36;4.72;;;2.10;;
21239;SDS011;10778;48.962;9.018;2023-09-19T06:37:04;3.03;;;1.63;;
21239;SDS011;10778;48.962;9.018;2023-09-19T06:39:31;4.85;;;1.83;;
21239;SDS011;10778;48.962;9.018;2023-09-19T06:41:58;6.22;;;1.80;;
21239;SDS011;10778;48.962;9.018;2023-09-19T06:44:26;3.95;;;1.63;;
21239;SDS011;10778;48.962;9.018;2023-09-19T06:46:52;3.17;;;1.60;;
21239;SDS011;10778;48.962;9.018;2023-09-19T06:49:18;5.43;;;1.88;;
21239;SDS011;10778;48.962;9.018;2023-09-19T06:51:43;3.58;;;1.70;;
21239;SDS011;10778;48.962;9.018;2023-09-19T06:54:10;4.60;;;1.67;;
21239;SDS011;10778;48.962;9.018;2023-09-19T06:56:36;6.78;;;1.90;;
21239;SDS011;10778;48.962;9.018;2023-09-19T06:59:02;4.57;;;1.55;;
21239;SDS011;10778;48.962;9.018;2023-09-19T07:01:29;3.47;;;1.58;;
21239;SDS011;10778;48.962;9.018;2023-09-19T07:03:55;5.05;;;1.55;;
21239;SDS011;10778;48.962;9.018;2023-09-19T07:06:21;4.18;;;1.50;;
21239;SDS011;10778;48.962;9.018;2023-09-19T07:08:47;8.10;;;2.03;;
21239;SDS011;10778;48.962;9.018;2023-09-19T07:11:14;6.82;;;1.90;;
21239;SDS011;10778;48.962;9.018;2023-09-19T07:13:41;5.53;;;1.70;;
21239;SDS011;10778;48.962;9.018;2023-09-19T07:16:07;4.93;;;1.40;;
21239;SDS011;10778;48.962;9.018;2023-09-19T07:18:36;6.35;;;1.60;;
21239;SDS011;10778;48.962;9.018;2023-09-19T07:21:02;5.50;;;1.50;;
21239;SDS011;10778;48.962;9.018;2023-09-19T07:23:30;5.05;;;1.50;;
21239;SDS011;10778;48.962;9.018;2023-09-19T07:26:01;4.63;;;1.38;;
21239;SDS011;10778;48.962;9.018;2023-09-19T07:28:27;3.92;;;1.48;;
21239;SDS011;10778;48.962;9.018;2023-09-19T07:30:53;4.47;;;1.48;;
21239;SDS011;10778;48.962;9.018;2023-09-19T07:33:20;3.92;;;1.33;;
21239;SDS011;10778;48.962;9.018;2023-09-19T07:35:46;4.40;;;1.40;;
21239;SDS011;10778;48.962;9.018;2023-09-19T07:38:13;5.45;;;1.38;;
21239;SDS011;10778;48.962;9.018;2023-09-19T07:40:39;4.25;;;1.38;;
21239;SDS011;10778;48.962;9.018;2023-09-19T07:43:05;4.22;;;1.15;;
21239;SDS011;10778;48.962;9.018;2023-09-19T07:45:32;3.55;;;1.38;;
21239;SDS011;10778;48.962;9.018;2023-09-19T07:47:58;4.28;;;1.50;;
21239;SDS011;10778;48.962;9.018;2023-09-19T07:50:27;3.30;;;1.30;;
21239;SDS011;10778;48.962;9.018;2023-09-19T07:52:54;3.95;;;1.35;;
21239;SDS011;10778;48.962;9.018;2023-09-19T07:55:22;4.10;;;1.48;;
21239;SDS011;10778;48.962;9.018;2023-09-19T07:57:52;5.03;;;1.50;;
21239;SDS011;10778;48.962;9.018;2023-09-19T08:00:18;5.03;;;1.40;;
21239;SDS011;10778;48.962;9.018;2023-09-19T08:02:44;3.35;;;1.40;;
21239;SDS011;10778;48.962;9.018;2023-09-19T08:05:10;4.20;;;1.50;;
21239;SDS011;10778;48.962;9.018;2023-09-19T08:07:42;4.07;;;1.50;;
21239;SDS011;10778;48.962;9.018;2023-09-19T08:10:09;3.95;;;1.30;;
21239;SDS011;10778;48.962;9.018;2023-09-19T08:12:42;3.55;;;1.20;;
21239;SDS011;10778;48.962;9.018;2023-09-19T08:15:16;4.32;;;1.40;;
21239;SDS011;10778;48.962;9.018;2023-09-19T08:17:43;3.83;;;1.30;;
21239;SDS011;10778;48.962;9.018;2023-09-19T08:20:09;3.45;;;1.40;;
21239;SDS011;10778;48.962;9.018;2023-09-19T08:22:43;3.85;;;1.27;;
21239;SDS011;10778;48.962;9.018;2023-09-19T08:25:13;7.80;;;1.58;;
21239;SDS011;10778;48.962;9.018;2023-09-19T08:27:43;8.13;;;1.70;;
21239;SDS011;10778;48.962;9.018;2023-09-19T08:30:14;3.88;;;1.30;;
21239;SDS011;10778;48.962;9.018;2023-09-19T08:32:43;4.63;;;1.50;;
21239;SDS011;10778;48.962;9.018;2023-09-19T08:35:10;3.72;;;1.10;;
21239;SDS011;10778;48.962;9.018;2023-09-19T08:37:36;3.10;;;1.10;;
21239;SDS011;10778;48.962;9.018;2023-09-19T08:40:02;3.83;;;1.27;;
21239;SDS011;10778;48.962;9.018;2023-09-19T08:42:29;6.25;;;1.67;;
21239;SDS011;10778;48.962;9.018;2023-09-19T08:44:55;5.53;;;1.63;;
21239;SDS011;10778;48.962;9.018;2023-09-19T08:47:33;5.47;;;1.52;;
21239;SDS011;10778;48.962;9.018;2023-09-19T08:50:13;3.13;;;1.02;;
21239;SDS011;10778;48.962;9.018;2023-09-19T08:52:46;3.15;;;1.08;;
21239;SDS011;10778;48.962;9.018;2023-09-19T08:55:14;3.88;;;1.10;;
21239;SDS011;10778;48.962;9.018;2023-09-19T08:57:49;2.08;;;0.90;;
21239;SDS011;10778;48.962;9.018;2023-09-19T09:00:15;2.85;;;1.30;;
21239;SDS011;10778;48.962;9.018;2023-09-19T09:02:46;3.78;;;1.10;;
21239;SDS011;10778;48.962;9.018;2023-09-19T09:05:13;4.07;;;1.30;;
21239;SDS011;10778;48.962;9.018;2023-09-19T09:07:41;3.13;;;1.00;;
21239;SDS011;10778;48.962;9.018;2023-09-19T09:10:09;4.43;;;1.20;;
21239;SDS011;10778;48.962;9.018;2023-09-19T09:12:35;1.95;;;1.15;;
21239;SDS011;10778;48.962;9.018;2023-09-19T09:15:03;3.33;;;1.30;;
21239;SDS011;10778;48.962;9.018;2023-09-19T09:17:30;2.85;;;1.20;;
21239;SDS011;10778;48.962;9.018;2023-09-19T09:19:56;4.57;;;1.35;;
21239;SDS011;10778;48.962;9.018;2023-09-19T09:22:22;3.75;;;1.20;;
21239;SDS011;10778;48.962;9.018;2023-09-19T09:24:58;3.80;;;1.20;;
21239;SDS011;10778;48.962;9.018;2023-09-19T09:27:27;2.45;;;1.00;;
21239;SDS011;10778;48.962;9.018;2023-09-19T09:29:53;2.60;;;0.95;;
21239;SDS011;10778;48.962;9.018;2023-09-19T09:32:27;3.55;;;1.10;;
21239;SDS011;10778;48.962;9.018;2023-09-19T09:34:56;3.42;;;1.05;;
21239;SDS011;10778;48.962;9.018;2023-09-19T09:37:23;2.25;;;1.10;;
21239;SDS011;10778;48.962;9.018;2023-09-19T09:39:54;3.22;;;1.20;;
21239;SDS011;10778;48.962;9.018;2023-09-19T09:42:32;2.92;;;0.95;;
21239;SDS011;10778;48.962;9.018;2023-09-19T09:45:12;2.83;;;1.20;;
21239;SDS011;10778;48.962;9.018;2023-09-19T09:48:00;2.15;;;1.20;;
21239;SDS011;10778;48.962;9.018;2023-09-19T09:50:30;3.10;;;1.38;;
21239;SDS011;10778;48.962;9.018;2023-09-19T09:56:01;4.10;;;1.50;;
21239;SDS011;10778;48.962;9.018;2023-09-19T09:58:32;3.45;;;1.30;;
21239;SDS011;10778;48.962;9.018;2023-09-19T10:01:03;2.67;;;1.27;;
21239;SDS011;10778;48.962;9.018;2023-09-19T10:03:37;3.38;;;1.33;;
21239;SDS011;10778;48.962;9.018;2023-09-19T10:06:13;2.30;;;1.20;;
21239;SDS011;10778;48.962;9.018;2023-09-19T10:11:45;3.92;;;1.20;;
21239;SDS011;10778;48.962;9.018;2023-09-19T10:14:29;3.60;;;1.27;;
21239;SDS011;10778;48.962;9.018;2023-09-19T10:16:58;3.83;;;1.10;;
21239;SDS011;10778;48.962;9.018;2023-09-19T10:19:29;2.67;;;1.20;;
21239;SDS011;10778;48.962;9.018;2023-09-19T10:21:59;3.33;;;1.20;;
21239;SDS011;10778;48.962;9.018;2023-09-19T10:24:27;3.58;;;1.30;;
21239;SDS011;10778;48.962;9.018;2023-09-19T10:26:54;2.67;;;1.17;;
21239;SDS011;10778;48.962;9.018;2023-09-19T10:29:21;2.88;;;1.30;;
21239;SDS011;10778;48.962;9.018;2023-09-19T10:31:52;3.97;;;1.30;;
21239;SDS011;10778;48.962;9.018;2023-09-19T10:34:19;4.15;;;1.23;;
21239;SDS011;10778;48.962;9.018;2023-09-19T10:36:46;3.03;;;1.30;;
21239;SDS011;10778;48.962;9.018;2023-09-19T10:39:13;4.90;;;1.40;;
21239;SDS011;10778;48.962;9.018;2023-09-19T10:41:51;3.70;;;1.25;;
21239;SDS011;10778;48.962;9.018;2023-09-19T10:44:24;3.50;;;1.23;;
21239;SDS011;10778;48.962;9.018;2023-09-19T10:46:51;3.38;;;1.30;;
21239;SDS011;10778;48.962;9.018;2023-09-19T10:49:18;2.65;;;1.20;;
21239;SDS011;10778;48.962;9.018;2023-09-19T10:51:45;4.00;;;1.23;;
21239;SDS011;10778;48.962;9.018;2023-09-19T10:54:13;3.58;;;1.20;;
21239;SDS011;10778;48.962;9.018;2023-09-19T10:56:43;3.38;;;1.17;;
21239;SDS011;10778;48.962;9.018;2023-09-19T10:59:15;3.15;;;1.42;;
21239;SDS011;10778;48.962;9.018;2023-09-19T11:01:44;2.55;;;1.10;;
21239;SDS011;10778;48.962;9.018;2023-09-19T11:04:35;5.07;;;1.40;;
21239;SDS011;10778;48.962;9.018;2023-09-19T11:07:06;3.47;;;1.27;;
21239;SDS011;10778;48.962;9.018;2023-09-19T11:14:57;4.53;;;1.55;;
21239;SDS011;10778;48.962;9.018;2023-09-19T11:17:31;5.72;;;1.40;;
21239;SDS011;10778;48.962;9.018;2023-09-19T11:30:31;3.08;;;1.00;;
21239;SDS011;10778;48.962;9.018;2023-09-19T11:36:03;6.03;;;1.30;;
21239;SDS011;10778;48.962;9.018;2023-09-19T11:46:26;4.60;;;1.45;;
21239;SDS011;10778;48.962;9.018;2023-09-19T11:48:53;4.03;;;1.30;;
21239;SDS011;10778;48.962;9.018;2023-09-19T11:51:22;3.70;;;1.33;;
21239;SDS011;10778;48.962;9.018;2023-09-19T11:53:57;3.90;;;1.20;;
21239;SDS011;10778;48.962;9.018;2023-09-19T11:56:26;4.88;;;1.58;;
21239;SDS011;10778;48.962;9.018;2023-09-19T11:58:57;3.03;;;1.23;;
21239;SDS011;10778;48.962;9.018;2023-09-19T12:01:32;2.33;;;1.23;;
21239;SDS011;10778;48.962;9.018;2023-09-19T12:04:01;2.38;;;1.20;;
21239;SDS011;10778;48.962;9.018;2023-09-19T12:06:30;4.18;;;1.38;;
21239;SDS011;10778;48.962;9.018;2023-09-19T12:08:58;3.90;;;1.27;;
21239;SDS011;10778;48.962;9.018;2023-09-19T12:11:27;2.38;;;1.27;;
21239;SDS011;10778;48.962;9.018;2023-09-19T12:13:58;3.40;;;1.27;;
21239;SDS011;10778;48.962;9.018;2023-09-19T12:16:26;4.30;;;1.40;;
21239;SDS011;10778;48.962;9.018;2023-09-19T12:18:56;3.28;;;1.20;;
21239;SDS011;10778;48.962;9.018;2023-09-19T12:21:27;3.25;;;1.63;;
21239;SDS011;10778;48.962;9.018;2023-09-19T12:26:24;6.13;;;1.65;;
21239;SDS011;10778;48.962;9.018;2023-09-19T12:28:50;5.30;;;1.38;;
21239;SDS011;10778;48.962;9.018;2023-09-19T12:31:18;2.78;;;1.40;;
21239;SDS011;10778;48.962;9.018;2023-09-19T12:33:45;3.47;;;1.40;;
21239;SDS011;10778;48.962;9.018;2023-09-19T12:36:21;4.93;;;1.30;;
21239;SDS011;10778;48.962;9.018;2023-09-19T12:38:58;3.30;;;1.38;;
21239;SDS011;10778;48.962;9.018;2023-09-19T12:41:32;3.88;;;1.23;;
21239;SDS011;10778;48.962;9.018;2023-09-19T12:43:58;5.63;;;1.40;;
21239;SDS011;10778;48.962;9.018;2023-09-19T12:46:25;3.30;;;1.17;;
21239;SDS011;10778;48.962;9.018;2023-09-19T12:51:42;2.97;;;1.40;;
21239;SDS011;10778;48.962;9.018;2023-09-19T12:54:09;3.83;;;1.38;;
21239;SDS011;10778;48.962;9.018;2023-09-19T12:56:39;2.55;;;1.35;;
21239;SDS011;10778;48.962;9.018;2023-09-19T12:59:11;3.20;;;1.30;;
21239;SDS011;10778;48.962;9.018;2023-09-19T13:01:39;4.78;;;1.55;;
21239;SDS011;10778;48.962;9.018;2023-09-19T13:06:38;2.55;;;1.05;;
21239;SDS011;10778;48.962;9.018;2023-09-19T13:09:09;2.88;;;1.30;;
21239;SDS011;10778;48.962;9.018;2023-09-19T13:11:37;2.33;;;1.23;;
21239;SDS011;10778;48.962;9.018;2023-09-19T13:17:03;4.45;;;1.50;;
21239;SDS011;10778;48.962;9.018;2023-09-19T13:19:41;3.00;;;1.40;;
21239;SDS011;10778;48.962;9.018;2023-09-19T13:25:12;2.38;;;1.40;;
21239;SDS011;10778;48.962;9.018;2023-09-19T13:27:41;2.20;;;1.17;;
21239;SDS011;10778;48.962;9.018;2023-09-19T13:30:08;3.00;;;1.33;;
21239;SDS011;10778;48.962;9.018;2023-09-19T13:32:35;4.13;;;1.50;;
21239;SDS011;10778;48.962;9.018;2023-09-19T13:35:01;4.80;;;1.52;;
21239;SDS011;10778;48.962;9.018;2023-09-19T13:37:27;5.18;;;1.33;;
21239;SDS011;10778;48.962;9.018;2023-09-19T13:39:53;4.85;;;1.40;;
21239;SDS011;10778;48.962;9.018;2023-09-19T13:42:19;2.05;;;1.10;;
21239;SDS011;10778;48.962;9.018;2023-09-19T13:44:47;2.60;;;1.35;;
21239;SDS011;10778;48.962;9.018;2023-09-19T13:47:13;3.05;;;1.27;;
21239;SDS011;10778;48.962;9.018;2023-09-19T13:49:40;4.80;;;1.40;;
21239;SDS011;10778;48.962;9.018;2023-09-19T13:52:08;2.25;;;1.42;;
21239;SDS011;10778;48.962;9.018;2023-09-19T13:54:34;4.78;;;1.40;;
21239;SDS011;10778;48.962;9.018;2023-09-19T13:57:00;1.88;;;1.23;;
21239;SDS011;10778;48.962;9.018;2023-09-19T13:59:26;2.70;;;1.23;;
21239;SDS011;10778;48.962;9.018;2023-09-19T14:01:54;3.85;;;1.27;;
21239;SDS011;10778;48.962;9.018;2023-09-19T14:04:20;2.75;;;1.30;;
21239;SDS011;10778;48.962;9.018;2023-09-19T14:06:47;2.55;;;1.40;;
21239;SDS011;10778;48.962;9.018;2023-09-19T14:09:13;2.28;;;1.20;;
21239;SDS011;10778;48.962;9.018;2023-09-19T14:11:39;2.70;;;1.38;;
21239;SDS011;10778;48.962;9.018;2023-09-19T14:14:05;2.38;;;1.50;;
21239;SDS011;10778;48.962;9.018;2023-09-19T14:16:31;4.15;;;1.40;;
21239;SDS011;10778;48.962;9.018;2023-09-19T14:18:59;4.50;;;1.33;;
21239;SDS011;10778;48.962;9.018;2023-09-19T14:21:25;4.32;;;1.40;;
21239;SDS011;10778;48.962;9.018;2023-09-19T14:23:51;3.65;;;1.30;;
21239;SDS011;10778;48.962;9.018;2023-09-19T14:26:20;2.50;;;1.30;;
21239;SDS011;10778;48.962;9.018;2023-09-19T14:28:46;1.45;;;1.05;;
21239;SDS011;10778;48.962;9.018;2023-09-19T14:31:12;2.03;;;1.20;;
21239;SDS011;10778;48.962;9.018;2023-09-19T14:33:38;2.83;;;1.10;;
21239;SDS011;10778;48.962;9.018;2023-09-19T14:36:08;3.95;;;1.40;;
21239;SDS011;10778;48.962;9.018;2023-09-19T14:38:36;3.05;;;1.30;;
21239;SDS011;10778;48.962;9.018;2023-09-19T14:41:03;1.95;;;1.27;;
21239;SDS011;10778;48.962;9.018;2023-09-19T14:43:31;2.00;;;1.27;;
21239;SDS011;10778;48.962;9.018;2023-09-19T14:46:04;2.58;;;1.15;;
21239;SDS011;10778;48.962;9.018;2023-09-19T14:48:38;2.85;;;1.25;;
21239;SDS011;10778;48.962;9.018;2023-09-19T14:51:04;2.63;;;1.00;;
21239;SDS011;10778;48.962;9.018;2023-09-19T14:53:34;2.78;;;1.20;;
21239;SDS011;10778;48.962;9.018;2023-09-19T14:56:01;2.05;;;1.17;;
21239;SDS011;10778;48.962;9.018;2023-09-19T14:58:31;2.80;;;1.10;;
21239;SDS011;10778;48.962;9.018;2023-09-19T15:01:04;1.67;;;1.10;;
21239;SDS011;10778;48.962;9.018;2023-09-19T15:03:32;2.55;;;1.17;;
21239;SDS011;10778;48.962;9.018;2023-09-19T15:06:00;2.55;;;1.10;;
21239;SDS011;10778;48.962;9.018;2023-09-19T15:08:27;1.70;;;1.10;;
21239;SDS011;10778;48.962;9.018;2023-09-19T15:10:53;3.55;;;1.15;;
21239;SDS011;10778;48.962;9.018;2023-09-19T15:13:19;3.17;;;1.15;;
21239;SDS011;10778;48.962;9.018;2023-09-19T15:15:46;1.55;;;1.10;;
21239;SDS011;10778;48.962;9.018;2023-09-19T15:18:13;1.85;;;1.00;;
21239;SDS011;10778;48.962;9.018;2023-09-19T15:20:43;2.08;;;1.00;;
21239;SDS011;10778;48.962;9.018;2023-09-19T15:23:10;4.43;;;1.20;;
21239;SDS011;10778;48.962;9.018;2023-09-19T15:25:38;3.40;;;1.20;;
21239;SDS011;10778;48.962;9.018;2023-09-19T15:28:05;1.63;;;1.08;;
21239;SDS011;10778;48.962;9.018;2023-09-19T15:30:37;3.05;;;1.10;;
21239;SDS011;10778;48.962;9.018;2023-09-19T15:33:06;5.45;;;1.10;;
21239;SDS011;10778;48.962;9.018;2023-09-19T15:35:33;3.90;;;1.10;;
21239;SDS011;10778;48.962;9.018;2023-09-19T15:37:58;1.88;;;1.00;;
21239;SDS011;10778;48.962;9.018;2023-09-19T15:40:26;2.88;;;1.02;;
21239;SDS011;10778;48.962;9.018;2023-09-19T15:42:54;3.28;;;1.10;;
21239;SDS011;10778;48.962;9.018;2023-09-19T15:45:20;2.05;;;1.05;;
21239;SDS011;10778;48.962;9.018;2023-09-19T15:47:46;2.13;;;1.52;;
21239;SDS011;10778;48.962;9.018;2023-09-19T15:50:12;4.50;;;1.25;;
21239;SDS011;10778;48.962;9.018;2023-09-19T15:52:41;2.85;;;1.30;;
21239;SDS011;10778;48.962;9.018;2023-09-19T15:55:07;2.45;;;1.20;;
21239;SDS011;10778;48.962;9.018;2023-09-19T15:57:37;5.47;;;1.30;;